Terminal Aerodrome Forecast
Issued by NWS

Home | Current Version | Previous Version | Text Only | Print | Product List | Glossary On
Versions: 1 2 3 4 5 6 7 8 9 10 11 12
000
FTUS42 KTBW 121139
TAFPGD
TAF
KPGD 121139Z 1212/1312 VRB03KT P6SM FEW040
     FM121400 25006KT P6SM SCT040
     FM121700 27015G25KT P6SM BKN040
     FM122000 29015G25KT P6SM BKN040
     FM130000 31010KT P6SM SCT040
     FM130600 35007KT P6SM SKC=

USA.gov is the U.S. government's official web portal to all federal, state and local government web resources and services.